sensor_id;sensor_type;location;lat;lon;timestamp;P1;durP1;ratioP1;P2;durP2;ratioP2
9330;SDS011;4704;50.470;12.072;2022-08-01T00:01:30;2.70;;;2.50;;
9330;SDS011;4704;50.470;12.072;2022-08-01T00:03:57;2.83;;;2.63;;
9330;SDS011;4704;50.470;12.072;2022-08-01T00:06:25;2.90;;;2.70;;
9330;SDS011;4704;50.470;12.072;2022-08-01T00:08:52;3.20;;;2.67;;
9330;SDS011;4704;50.470;12.072;2022-08-01T00:11:19;2.55;;;2.35;;
9330;SDS011;4704;50.470;12.072;2022-08-01T00:13:49;2.60;;;2.40;;
9330;SDS011;4704;50.470;12.072;2022-08-01T00:16:16;2.63;;;2.35;;
9330;SDS011;4704;50.470;12.072;2022-08-01T00:18:43;2.88;;;2.67;;
9330;SDS011;4704;50.470;12.072;2022-08-01T00:21:11;2.60;;;2.40;;
9330;SDS011;4704;50.470;12.072;2022-08-01T00:23:38;3.08;;;2.88;;
9330;SDS011;4704;50.470;12.072;2022-08-01T00:26:06;2.85;;;2.65;;
9330;SDS011;4704;50.470;12.072;2022-08-01T00:28:33;2.50;;;2.40;;
9330;SDS011;4704;50.470;12.072;2022-08-01T00:31:02;2.90;;;2.70;;
9330;SDS011;4704;50.470;12.072;2022-08-01T00:33:29;2.60;;;2.40;;
9330;SDS011;4704;50.470;12.072;2022-08-01T00:35:57;2.70;;;2.50;;
9330;SDS011;4704;50.470;12.072;2022-08-01T00:38:24;2.90;;;2.70;;
9330;SDS011;4704;50.470;12.072;2022-08-01T00:40:52;2.53;;;2.38;;
9330;SDS011;4704;50.470;12.072;2022-08-01T00:43:19;2.72;;;2.53;;
9330;SDS011;4704;50.470;12.072;2022-08-01T00:45:46;2.65;;;2.45;;
9330;SDS011;4704;50.470;12.072;2022-08-01T00:48:15;2.63;;;2.42;;
9330;SDS011;4704;50.470;12.072;2022-08-01T00:50:42;2.30;;;2.20;;
9330;SDS011;4704;50.470;12.072;2022-08-01T00:53:10;2.47;;;2.38;;
9330;SDS011;4704;50.470;12.072;2022-08-01T00:55:37;2.70;;;2.50;;
9330;SDS011;4704;50.470;12.072;2022-08-01T00:58:05;2.90;;;2.70;;
9330;SDS011;4704;50.470;12.072;2022-08-01T01:00:33;2.72;;;2.53;;
9330;SDS011;4704;50.470;12.072;2022-08-01T01:03:00;2.30;;;2.20;;
9330;SDS011;4704;50.470;12.072;2022-08-01T01:05:30;2.60;;;2.40;;
9330;SDS011;4704;50.470;12.072;2022-08-01T01:07:59;2.72;;;2.53;;
9330;SDS011;4704;50.470;12.072;2022-08-01T01:10:30;2.90;;;2.70;;
9330;SDS011;4704;50.470;12.072;2022-08-01T01:13:00;2.63;;;2.50;;
9330;SDS011;4704;50.470;12.072;2022-08-01T01:15:30;2.75;;;2.55;;
9330;SDS011;4704;50.470;12.072;2022-08-01T01:18:02;2.88;;;2.67;;
9330;SDS011;4704;50.470;12.072;2022-08-01T01:20:34;2.80;;;2.60;;
9330;SDS011;4704;50.470;12.072;2022-08-01T01:23:10;2.53;;;2.42;;
9330;SDS011;4704;50.470;12.072;2022-08-01T01:25:40;2.88;;;2.67;;
9330;SDS011;4704;50.470;12.072;2022-08-01T01:28:09;2.40;;;2.30;;
9330;SDS011;4704;50.470;12.072;2022-08-01T01:30:41;2.70;;;2.50;;
9330;SDS011;4704;50.470;12.072;2022-08-01T01:33:09;2.85;;;2.65;;
9330;SDS011;4704;50.470;12.072;2022-08-01T01:35:38;2.60;;;2.40;;
9330;SDS011;4704;50.470;12.072;2022-08-01T01:38:07;2.40;;;2.30;;
9330;SDS011;4704;50.470;12.072;2022-08-01T01:40:36;2.63;;;2.42;;
9330;SDS011;4704;50.470;12.072;2022-08-01T01:43:03;2.67;;;2.47;;
9330;SDS011;4704;50.470;12.072;2022-08-01T01:45:31;2.50;;;2.30;;
9330;SDS011;4704;50.470;12.072;2022-08-01T01:48:00;2.25;;;2.05;;
9330;SDS011;4704;50.470;12.072;2022-08-01T01:50:28;2.50;;;2.38;;
9330;SDS011;4704;50.470;12.072;2022-08-01T01:52:56;2.58;;;2.47;;
9330;SDS011;4704;50.470;12.072;2022-08-01T01:55:24;2.80;;;2.60;;
9330;SDS011;4704;50.470;12.072;2022-08-01T01:57:52;2.80;;;2.60;;
9330;SDS011;4704;50.470;12.072;2022-08-01T02:00:20;2.53;;;2.42;;
9330;SDS011;4704;50.470;12.072;2022-08-01T02:02:49;2.63;;;2.42;;
9330;SDS011;4704;50.470;12.072;2022-08-01T02:05:18;3.15;;;2.95;;
9330;SDS011;4704;50.470;12.072;2022-08-01T02:07:45;2.42;;;2.33;;
9330;SDS011;4704;50.470;12.072;2022-08-01T02:10:14;2.75;;;2.55;;
9330;SDS011;4704;50.470;12.072;2022-08-01T02:12:43;2.65;;;2.50;;
9330;SDS011;4704;50.470;12.072;2022-08-01T02:15:11;2.83;;;2.63;;
9330;SDS011;4704;50.470;12.072;2022-08-01T02:17:41;2.58;;;2.42;;
9330;SDS011;4704;50.470;12.072;2022-08-01T02:20:09;2.60;;;2.50;;
9330;SDS011;4704;50.470;12.072;2022-08-01T02:22:40;2.70;;;2.50;;
9330;SDS011;4704;50.470;12.072;2022-08-01T02:25:10;2.80;;;2.42;;
9330;SDS011;4704;50.470;12.072;2022-08-01T02:27:40;2.83;;;2.40;;
9330;SDS011;4704;50.470;12.072;2022-08-01T02:30:10;2.40;;;2.30;;
9330;SDS011;4704;50.470;12.072;2022-08-01T02:32:40;2.78;;;2.58;;
9330;SDS011;4704;50.470;12.072;2022-08-01T02:35:09;2.50;;;2.40;;
9330;SDS011;4704;50.470;12.072;2022-08-01T02:37:39;2.60;;;2.50;;
9330;SDS011;4704;50.470;12.072;2022-08-01T02:40:08;2.70;;;2.50;;
9330;SDS011;4704;50.470;12.072;2022-08-01T02:42:37;2.47;;;2.38;;
9330;SDS011;4704;50.470;12.072;2022-08-01T02:45:04;2.40;;;2.30;;
9330;SDS011;4704;50.470;12.072;2022-08-01T02:47:34;2.50;;;2.30;;
9330;SDS011;4704;50.470;12.072;2022-08-01T02:50:03;2.63;;;2.42;;
9330;SDS011;4704;50.470;12.072;2022-08-01T02:52:33;2.75;;;2.55;;
9330;SDS011;4704;50.470;12.072;2022-08-01T02:55:03;2.50;;;2.30;;
9330;SDS011;4704;50.470;12.072;2022-08-01T02:57:31;2.67;;;2.47;;
9330;SDS011;4704;50.470;12.072;2022-08-01T02:59:59;2.50;;;2.30;;
9330;SDS011;4704;50.470;12.072;2022-08-01T03:02:27;2.10;;;2.00;;
9330;SDS011;4704;50.470;12.072;2022-08-01T03:04:55;2.65;;;2.40;;
9330;SDS011;4704;50.470;12.072;2022-08-01T03:07:24;2.30;;;2.20;;
9330;SDS011;4704;50.470;12.072;2022-08-01T03:09:52;2.40;;;2.30;;
9330;SDS011;4704;50.470;12.072;2022-08-01T03:12:22;2.80;;;2.60;;
9330;SDS011;4704;50.470;12.072;2022-08-01T03:14:51;2.60;;;2.40;;
9330;SDS011;4704;50.470;12.072;2022-08-01T03:17:21;2.85;;;2.65;;
9330;SDS011;4704;50.470;12.072;2022-08-01T03:19:49;2.30;;;2.20;;
9330;SDS011;4704;50.470;12.072;2022-08-01T03:22:17;2.40;;;2.30;;
9330;SDS011;4704;50.470;12.072;2022-08-01T03:24:47;2.47;;;2.38;;
9330;SDS011;4704;50.470;12.072;2022-08-01T03:27:15;2.50;;;2.40;;
9330;SDS011;4704;50.470;12.072;2022-08-01T03:29:44;2.20;;;2.10;;
9330;SDS011;4704;50.470;12.072;2022-08-01T03:32:12;2.88;;;2.70;;
9330;SDS011;4704;50.470;12.072;2022-08-01T03:34:40;2.80;;;2.60;;
9330;SDS011;4704;50.470;12.072;2022-08-01T03:37:09;2.35;;;2.25;;
9330;SDS011;4704;50.470;12.072;2022-08-01T03:39:40;2.38;;;2.28;;
9330;SDS011;4704;50.470;12.072;2022-08-01T03:42:09;2.80;;;2.60;;
9330;SDS011;4704;50.470;12.072;2022-08-01T03:44:39;2.40;;;2.30;;
9330;SDS011;4704;50.470;12.072;2022-08-01T03:47:09;2.55;;;2.45;;
9330;SDS011;4704;50.470;12.072;2022-08-01T03:49:38;2.55;;;2.40;;
9330;SDS011;4704;50.470;12.072;2022-08-01T03:52:08;2.40;;;2.30;;
9330;SDS011;4704;50.470;12.072;2022-08-01T03:54:36;2.95;;;2.75;;
9330;SDS011;4704;50.470;12.072;2022-08-01T03:57:05;2.80;;;2.70;;
9330;SDS011;4704;50.470;12.072;2022-08-01T03:59:32;2.80;;;2.60;;
9330;SDS011;4704;50.470;12.072;2022-08-01T04:02:02;2.38;;;2.28;;
9330;SDS011;4704;50.470;12.072;2022-08-01T04:04:31;2.65;;;2.47;;
9330;SDS011;4704;50.470;12.072;2022-08-01T04:06:59;2.55;;;2.45;;
9330;SDS011;4704;50.470;12.072;2022-08-01T04:09:31;2.83;;;2.70;;
9330;SDS011;4704;50.470;12.072;2022-08-01T04:11:58;2.20;;;2.10;;
9330;SDS011;4704;50.470;12.072;2022-08-01T04:14:26;2.72;;;2.63;;
9330;SDS011;4704;50.470;12.072;2022-08-01T04:16:53;2.40;;;2.30;;
9330;SDS011;4704;50.470;12.072;2022-08-01T04:19:21;2.60;;;2.50;;
9330;SDS011;4704;50.470;12.072;2022-08-01T04:21:50;2.63;;;2.42;;
9330;SDS011;4704;50.470;12.072;2022-08-01T04:24:17;2.38;;;2.28;;
9330;SDS011;4704;50.470;12.072;2022-08-01T04:26:46;2.55;;;2.40;;
9330;SDS011;4704;50.470;12.072;2022-08-01T04:29:14;2.45;;;2.33;;
9330;SDS011;4704;50.470;12.072;2022-08-01T04:31:43;2.30;;;2.20;;
9330;SDS011;4704;50.470;12.072;2022-08-01T04:34:14;2.40;;;2.30;;
9330;SDS011;4704;50.470;12.072;2022-08-01T04:36:42;2.35;;;2.25;;
9330;SDS011;4704;50.470;12.072;2022-08-01T04:39:12;2.53;;;2.42;;
9330;SDS011;4704;50.470;12.072;2022-08-01T04:41:40;2.30;;;2.20;;
9330;SDS011;4704;50.470;12.072;2022-08-01T04:44:08;2.65;;;2.50;;
9330;SDS011;4704;50.470;12.072;2022-08-01T04:46:36;2.80;;;2.60;;
9330;SDS011;4704;50.470;12.072;2022-08-01T04:49:04;2.53;;;2.42;;
9330;SDS011;4704;50.470;12.072;2022-08-01T04:51:32;2.60;;;2.47;;
9330;SDS011;4704;50.470;12.072;2022-08-01T04:53:59;2.75;;;2.55;;
9330;SDS011;4704;50.470;12.072;2022-08-01T04:56:28;2.40;;;2.30;;
9330;SDS011;4704;50.470;12.072;2022-08-01T04:58:55;2.58;;;2.33;;
9330;SDS011;4704;50.470;12.072;2022-08-01T05:01:40;2.53;;;2.40;;
9330;SDS011;4704;50.470;12.072;2022-08-01T05:04:08;2.47;;;2.38;;
9330;SDS011;4704;50.470;12.072;2022-08-01T05:06:35;2.90;;;2.70;;
9330;SDS011;4704;50.470;12.072;2022-08-01T05:09:02;2.72;;;2.55;;
9330;SDS011;4704;50.470;12.072;2022-08-01T05:11:31;2.47;;;2.38;;
9330;SDS011;4704;50.470;12.072;2022-08-01T05:13:58;2.80;;;2.60;;
9330;SDS011;4704;50.470;12.072;2022-08-01T05:16:25;2.47;;;2.38;;
9330;SDS011;4704;50.470;12.072;2022-08-01T05:18:52;2.55;;;2.40;;
9330;SDS011;4704;50.470;12.072;2022-08-01T05:21:20;2.22;;;2.13;;
9330;SDS011;4704;50.470;12.072;2022-08-01T05:23:47;2.70;;;2.50;;
9330;SDS011;4704;50.470;12.072;2022-08-01T05:26:14;2.30;;;2.20;;
9330;SDS011;4704;50.470;12.072;2022-08-01T05:28:43;2.60;;;2.40;;
9330;SDS011;4704;50.470;12.072;2022-08-01T05:31:10;2.67;;;2.50;;
9330;SDS011;4704;50.470;12.072;2022-08-01T05:33:38;2.60;;;2.50;;
9330;SDS011;4704;50.470;12.072;2022-08-01T05:36:05;2.60;;;2.40;;
9330;SDS011;4704;50.470;12.072;2022-08-01T05:38:33;2.33;;;2.22;;
9330;SDS011;4704;50.470;12.072;2022-08-01T05:41:00;2.58;;;2.47;;
9330;SDS011;4704;50.470;12.072;2022-08-01T05:43:28;2.40;;;2.30;;
9330;SDS011;4704;50.470;12.072;2022-08-01T05:45:56;2.40;;;2.30;;
9330;SDS011;4704;50.470;12.072;2022-08-01T05:48:24;2.42;;;2.30;;
9330;SDS011;4704;50.470;12.072;2022-08-01T05:50:51;2.75;;;2.47;;
9330;SDS011;4704;50.470;12.072;2022-08-01T05:53:19;2.50;;;2.30;;
9330;SDS011;4704;50.470;12.072;2022-08-01T05:55:46;2.38;;;2.28;;
9330;SDS011;4704;50.470;12.072;2022-08-01T05:58:13;2.85;;;2.65;;
9330;SDS011;4704;50.470;12.072;2022-08-01T06:00:41;2.40;;;2.30;;
9330;SDS011;4704;50.470;12.072;2022-08-01T06:03:09;2.55;;;2.45;;
9330;SDS011;4704;50.470;12.072;2022-08-01T06:05:37;2.63;;;2.50;;
9330;SDS011;4704;50.470;12.072;2022-08-01T06:08:04;2.33;;;2.22;;
9330;SDS011;4704;50.470;12.072;2022-08-01T06:10:32;2.40;;;2.30;;
9330;SDS011;4704;50.470;12.072;2022-08-01T06:12:59;2.30;;;2.20;;
9330;SDS011;4704;50.470;12.072;2022-08-01T06:15:28;2.50;;;2.30;;
9330;SDS011;4704;50.470;12.072;2022-08-01T06:17:55;2.30;;;2.20;;
9330;SDS011;4704;50.470;12.072;2022-08-01T06:20:24;2.25;;;2.15;;
9330;SDS011;4704;50.470;12.072;2022-08-01T06:22:51;2.30;;;2.20;;
9330;SDS011;4704;50.470;12.072;2022-08-01T06:25:19;2.83;;;2.63;;
9330;SDS011;4704;50.470;12.072;2022-08-01T06:27:46;2.60;;;2.40;;
9330;SDS011;4704;50.470;12.072;2022-08-01T06:30:15;2.42;;;2.22;;
9330;SDS011;4704;50.470;12.072;2022-08-01T06:32:42;2.80;;;2.60;;
9330;SDS011;4704;50.470;12.072;2022-08-01T06:35:10;2.78;;;2.60;;
9330;SDS011;4704;50.470;12.072;2022-08-01T06:37:38;2.33;;;2.22;;
9330;SDS011;4704;50.470;12.072;2022-08-01T06:40:07;2.20;;;2.10;;
9330;SDS011;4704;50.470;12.072;2022-08-01T06:42:34;2.60;;;2.40;;
9330;SDS011;4704;50.470;12.072;2022-08-01T06:45:02;2.47;;;2.28;;
9330;SDS011;4704;50.470;12.072;2022-08-01T06:47:30;2.40;;;2.20;;
9330;SDS011;4704;50.470;12.072;2022-08-01T06:49:57;3.08;;;2.42;;
9330;SDS011;4704;50.470;12.072;2022-08-01T06:52:24;2.40;;;2.30;;
9330;SDS011;4704;50.470;12.072;2022-08-01T06:54:53;2.25;;;2.15;;
9330;SDS011;4704;50.470;12.072;2022-08-01T06:57:21;2.47;;;2.28;;
9330;SDS011;4704;50.470;12.072;2022-08-01T06:59:48;3.20;;;2.40;;
9330;SDS011;4704;50.470;12.072;2022-08-01T07:02:15;2.78;;;2.58;;
9330;SDS011;4704;50.470;12.072;2022-08-01T07:04:43;2.85;;;2.60;;
9330;SDS011;4704;50.470;12.072;2022-08-01T07:07:10;2.50;;;2.30;;
9330;SDS011;4704;50.470;12.072;2022-08-01T07:09:37;2.53;;;2.33;;
9330;SDS011;4704;50.470;12.072;2022-08-01T07:12:07;2.90;;;2.70;;
9330;SDS011;4704;50.470;12.072;2022-08-01T07:14:35;3.45;;;2.80;;
9330;SDS011;4704;50.470;12.072;2022-08-01T07:17:03;2.60;;;2.40;;
9330;SDS011;4704;50.470;12.072;2022-08-01T07:19:30;3.25;;;2.67;;
9330;SDS011;4704;50.470;12.072;2022-08-01T07:21:58;2.72;;;2.53;;
9330;SDS011;4704;50.470;12.072;2022-08-01T07:24:25;2.70;;;2.50;;
9330;SDS011;4704;50.470;12.072;2022-08-01T07:26:54;3.20;;;2.90;;
9330;SDS011;4704;50.470;12.072;2022-08-01T07:29:24;2.80;;;2.60;;
9330;SDS011;4704;50.470;12.072;2022-08-01T07:31:52;2.85;;;2.60;;
9330;SDS011;4704;50.470;12.072;2022-08-01T07:34:19;2.35;;;2.15;;
9330;SDS011;4704;50.470;12.072;2022-08-01T07:36:46;2.70;;;2.40;;
9330;SDS011;4704;50.470;12.072;2022-08-01T07:39:14;2.92;;;2.70;;
9330;SDS011;4704;50.470;12.072;2022-08-01T07:41:41;2.70;;;2.50;;
9330;SDS011;4704;50.470;12.072;2022-08-01T07:44:08;3.08;;;2.78;;
9330;SDS011;4704;50.470;12.072;2022-08-01T07:46:37;2.40;;;2.30;;
9330;SDS011;4704;50.470;12.072;2022-08-01T07:49:04;2.55;;;2.30;;
9330;SDS011;4704;50.470;12.072;2022-08-01T07:51:32;2.60;;;2.40;;
9330;SDS011;4704;50.470;12.072;2022-08-01T07:53:59;3.65;;;2.65;;
9330;SDS011;4704;50.470;12.072;2022-08-01T07:56:27;2.45;;;2.25;;
9330;SDS011;4704;50.470;12.072;2022-08-01T07:58:54;2.58;;;2.38;;
9330;SDS011;4704;50.470;12.072;2022-08-01T08:01:21;2.40;;;2.20;;
9330;SDS011;4704;50.470;12.072;2022-08-01T08:03:50;2.38;;;2.17;;
9330;SDS011;4704;50.470;12.072;2022-08-01T08:06:17;2.40;;;2.20;;
9330;SDS011;4704;50.470;12.072;2022-08-01T08:08:45;2.22;;;2.03;;
9330;SDS011;4704;50.470;12.072;2022-08-01T08:11:13;2.75;;;2.55;;
9330;SDS011;4704;50.470;12.072;2022-08-01T08:13:41;2.05;;;1.95;;
9330;SDS011;4704;50.470;12.072;2022-08-01T08:16:08;3.13;;;2.25;;
9330;SDS011;4704;50.470;12.072;2022-08-01T08:18:36;2.00;;;1.90;;
9330;SDS011;4704;50.470;12.072;2022-08-01T08:21:04;2.60;;;2.40;;
9330;SDS011;4704;50.470;12.072;2022-08-01T08:23:32;2.47;;;2.28;;
9330;SDS011;4704;50.470;12.072;2022-08-01T08:26:17;2.17;;;2.08;;
9330;SDS011;4704;50.470;12.072;2022-08-01T08:28:45;2.25;;;2.10;;
9330;SDS011;4704;50.470;12.072;2022-08-01T08:31:12;2.08;;;1.92;;
9330;SDS011;4704;50.470;12.072;2022-08-01T08:33:39;2.10;;;1.90;;
9330;SDS011;4704;50.470;12.072;2022-08-01T08:36:08;2.22;;;2.03;;
9330;SDS011;4704;50.470;12.072;2022-08-01T08:38:36;1.88;;;1.77;;
9330;SDS011;4704;50.470;12.072;2022-08-01T08:41:03;2.20;;;2.00;;
9330;SDS011;4704;50.470;12.072;2022-08-01T08:43:31;2.10;;;2.00;;
9330;SDS011;4704;50.470;12.072;2022-08-01T08:45:59;2.28;;;2.10;;
9330;SDS011;4704;50.470;12.072;2022-08-01T08:48:26;2.28;;;2.08;;
9330;SDS011;4704;50.470;12.072;2022-08-01T08:50:55;1.80;;;1.70;;
9330;SDS011;4704;50.470;12.072;2022-08-01T08:53:23;2.13;;;1.90;;
9330;SDS011;4704;50.470;12.072;2022-08-01T08:55:51;2.33;;;2.17;;
9330;SDS011;4704;50.470;12.072;2022-08-01T08:58:19;1.98;;;1.88;;
9330;SDS011;4704;50.470;12.072;2022-08-01T09:00:47;2.00;;;1.80;;
9330;SDS011;4704;50.470;12.072;2022-08-01T09:03:14;2.10;;;1.90;;
9330;SDS011;4704;50.470;12.072;2022-08-01T09:05:43;1.80;;;1.70;;
9330;SDS011;4704;50.470;12.072;2022-08-01T09:08:10;2.00;;;1.90;;
9330;SDS011;4704;50.470;12.072;2022-08-01T09:10:40;2.03;;;1.92;;
9330;SDS011;4704;50.470;12.072;2022-08-01T09:13:08;2.03;;;1.90;;
9330;SDS011;4704;50.470;12.072;2022-08-01T09:15:45;1.70;;;1.60;;
9330;SDS011;4704;50.470;12.072;2022-08-01T09:18:25;1.80;;;1.70;;
9330;SDS011;4704;50.470;12.072;2022-08-01T09:21:07;2.15;;;2.05;;
9330;SDS011;4704;50.470;12.072;2022-08-01T09:23:35;1.95;;;1.85;;
9330;SDS011;4704;50.470;12.072;2022-08-01T09:26:06;1.88;;;1.70;;
9330;SDS011;4704;50.470;12.072;2022-08-01T09:28:33;1.80;;;1.70;;
9330;SDS011;4704;50.470;12.072;2022-08-01T09:31:05;1.67;;;1.58;;
9330;SDS011;4704;50.470;12.072;2022-08-01T09:36:15;1.83;;;1.73;;
9330;SDS011;4704;50.470;12.072;2022-08-01T09:38:43;1.73;;;1.63;;
9330;SDS011;4704;50.470;12.072;2022-08-01T09:41:11;1.90;;;1.80;;
9330;SDS011;4704;50.470;12.072;2022-08-01T09:43:39;1.80;;;1.70;;
9330;SDS011;4704;50.470;12.072;2022-08-01T09:46:08;1.70;;;1.60;;
9330;SDS011;4704;50.470;12.072;2022-08-01T09:48:36;1.60;;;1.50;;
9330;SDS011;4704;50.470;12.072;2022-08-01T09:51:05;1.70;;;1.60;;
9330;SDS011;4704;50.470;12.072;2022-08-01T09:53:43;1.60;;;1.50;;
9330;SDS011;4704;50.470;12.072;2022-08-01T09:56:12;1.40;;;1.30;;
9330;SDS011;4704;50.470;12.072;2022-08-01T09:58:49;1.80;;;1.70;;
9330;SDS011;4704;50.470;12.072;2022-08-01T10:01:16;3.50;;;1.73;;
9330;SDS011;4704;50.470;12.072;2022-08-01T10:03:43;2.00;;;1.70;;
9330;SDS011;4704;50.470;12.072;2022-08-01T10:06:20;3.63;;;1.80;;
9330;SDS011;4704;50.470;12.072;2022-08-01T10:08:47;3.95;;;1.70;;
9330;SDS011;4704;50.470;12.072;2022-08-01T10:11:16;3.05;;;1.90;;
9330;SDS011;4704;50.470;12.072;2022-08-01T10:13:46;2.40;;;1.60;;
9330;SDS011;4704;50.470;12.072;2022-08-01T10:16:14;3.28;;;1.60;;
9330;SDS011;4704;50.470;12.072;2022-08-01T10:18:42;4.88;;;1.70;;
9330;SDS011;4704;50.470;12.072;2022-08-01T10:21:12;1.70;;;1.55;;
9330;SDS011;4704;50.470;12.072;2022-08-01T10:23:39;2.72;;;1.58;;
9330;SDS011;4704;50.470;12.072;2022-08-01T10:26:08;4.30;;;1.58;;
9330;SDS011;4704;50.470;12.072;2022-08-01T10:28:39;1.92;;;1.48;;
9330;SDS011;4704;50.470;12.072;2022-08-01T10:31:07;2.30;;;1.40;;
9330;SDS011;4704;50.470;12.072;2022-08-01T10:33:36;1.75;;;1.58;;
9330;SDS011;4704;50.470;12.072;2022-08-01T10:36:05;1.85;;;1.50;;
9330;SDS011;4704;50.470;12.072;2022-08-01T10:38:32;3.97;;;1.65;;
9330;SDS011;4704;50.470;12.072;2022-08-01T10:41:00;1.63;;;1.52;;
9330;SDS011;4704;50.470;12.072;2022-08-01T10:43:29;2.30;;;1.60;;
9330;SDS011;4704;50.470;12.072;2022-08-01T10:45:58;1.63;;;1.30;;
9330;SDS011;4704;50.470;12.072;2022-08-01T10:48:26;1.60;;;1.48;;
9330;SDS011;4704;50.470;12.072;2022-08-01T10:50:57;1.45;;;1.30;;
9330;SDS011;4704;50.470;12.072;2022-08-01T10:53:26;1.50;;;1.40;;
9330;SDS011;4704;50.470;12.072;2022-08-01T10:55:57;1.10;;;1.10;;
9330;SDS011;4704;50.470;12.072;2022-08-01T10:58:25;1.45;;;1.35;;
9330;SDS011;4704;50.470;12.072;2022-08-01T11:03:41;1.40;;;1.30;;
9330;SDS011;4704;50.470;12.072;2022-08-01T11:06:14;1.40;;;1.30;;
9330;SDS011;4704;50.470;12.072;2022-08-01T11:08:43;1.50;;;1.40;;
9330;SDS011;4704;50.470;12.072;2022-08-01T11:11:17;1.27;;;1.17;;
9330;SDS011;4704;50.470;12.072;2022-08-01T11:14:00;1.40;;;1.30;;
9330;SDS011;4704;50.470;12.072;2022-08-01T11:16:32;1.60;;;1.50;;
9330;SDS011;4704;50.470;12.072;2022-08-01T11:19:00;2.10;;;1.38;;
9330;SDS011;4704;50.470;12.072;2022-08-01T11:24:14;1.52;;;1.42;;
9330;SDS011;4704;50.470;12.072;2022-08-01T11:26:41;1.50;;;1.40;;
9330;SDS011;4704;50.470;12.072;2022-08-01T11:29:28;1.35;;;1.20;;
9330;SDS011;4704;50.470;12.072;2022-08-01T11:31:56;1.60;;;1.50;;
9330;SDS011;4704;50.470;12.072;2022-08-01T11:34:54;1.55;;;1.33;;
9330;SDS011;4704;50.470;12.072;2022-08-01T11:37:22;1.70;;;1.45;;
9330;SDS011;4704;50.470;12.072;2022-08-01T11:42:32;1.67;;;1.58;;
9330;SDS011;4704;50.470;12.072;2022-08-01T11:45:00;1.30;;;1.20;;
9330;SDS011;4704;50.470;12.072;2022-08-01T11:47:43;1.30;;;1.20;;
9330;SDS011;4704;50.470;12.072;2022-08-01T11:50:32;1.70;;;1.33;;
9330;SDS011;4704;50.470;12.072;2022-08-01T11:53:00;1.58;;;1.48;;
9330;SDS011;4704;50.470;12.072;2022-08-01T11:55:28;1.70;;;1.60;;
9330;SDS011;4704;50.470;12.072;2022-08-01T11:57:59;1.70;;;1.15;;
9330;SDS011;4704;50.470;12.072;2022-08-01T12:00:29;1.70;;;1.60;;
9330;SDS011;4704;50.470;12.072;2022-08-01T12:02:58;1.25;;;1.15;;
9330;SDS011;4704;50.470;12.072;2022-08-01T12:05:27;1.30;;;1.20;;
9330;SDS011;4704;50.470;12.072;2022-08-01T12:07:56;1.30;;;1.20;;
9330;SDS011;4704;50.470;12.072;2022-08-01T12:10:24;1.48;;;1.38;;
9330;SDS011;4704;50.470;12.072;2022-08-01T12:12:52;1.55;;;1.45;;
9330;SDS011;4704;50.470;12.072;2022-08-01T12:15:20;1.30;;;1.20;;
9330;SDS011;4704;50.470;12.072;2022-08-01T12:17:49;1.33;;;1.23;;
9330;SDS011;4704;50.470;12.072;2022-08-01T12:20:19;1.50;;;1.40;;
9330;SDS011;4704;50.470;12.072;2022-08-01T12:22:47;1.83;;;1.58;;
9330;SDS011;4704;50.470;12.072;2022-08-01T12:25:16;1.58;;;1.48;;
9330;SDS011;4704;50.470;12.072;2022-08-01T12:27:44;2.38;;;1.38;;
9330;SDS011;4704;50.470;12.072;2022-08-01T12:30:13;1.55;;;1.45;;
9330;SDS011;4704;50.470;12.072;2022-08-01T12:32:42;1.38;;;1.27;;
9330;SDS011;4704;50.470;12.072;2022-08-01T12:35:10;1.58;;;1.40;;
9330;SDS011;4704;50.470;12.072;2022-08-01T12:37:39;1.60;;;1.40;;
9330;SDS011;4704;50.470;12.072;2022-08-01T12:40:10;1.80;;;1.48;;
9330;SDS011;4704;50.470;12.072;2022-08-01T12:42:40;1.50;;;1.40;;
9330;SDS011;4704;50.470;12.072;2022-08-01T12:45:08;1.40;;;1.30;;
9330;SDS011;4704;50.470;12.072;2022-08-01T12:47:36;1.30;;;1.20;;
9330;SDS011;4704;50.470;12.072;2022-08-01T12:50:04;1.50;;;1.40;;
9330;SDS011;4704;50.470;12.072;2022-08-01T12:52:32;1.20;;;1.10;;
9330;SDS011;4704;50.470;12.072;2022-08-01T12:55:04;1.38;;;1.27;;
9330;SDS011;4704;50.470;12.072;2022-08-01T12:57:31;2.28;;;1.20;;
9330;SDS011;4704;50.470;12.072;2022-08-01T13:00:17;1.23;;;1.13;;
9330;SDS011;4704;50.470;12.072;2022-08-01T13:02:46;1.45;;;1.30;;
9330;SDS011;4704;50.470;12.072;2022-08-01T13:05:13;1.35;;;1.25;;
9330;SDS011;4704;50.470;12.072;2022-08-01T13:07:42;1.33;;;1.23;;
9330;SDS011;4704;50.470;12.072;2022-08-01T13:10:10;1.50;;;1.38;;
9330;SDS011;4704;50.470;12.072;2022-08-01T13:12:38;1.20;;;1.10;;
9330;SDS011;4704;50.470;12.072;2022-08-01T13:15:17;1.27;;;1.17;;
9330;SDS011;4704;50.470;12.072;2022-08-01T13:17:45;1.10;;;1.10;;
9330;SDS011;4704;50.470;12.072;2022-08-01T13:20:21;1.30;;;1.20;;
9330;SDS011;4704;50.470;12.072;2022-08-01T13:22:48;1.13;;;1.02;;
9330;SDS011;4704;50.470;12.072;2022-08-01T13:25:17;1.33;;;1.23;;
9330;SDS011;4704;50.470;12.072;2022-08-01T13:27:45;1.10;;;1.00;;
9330;SDS011;4704;50.470;12.072;2022-08-01T13:30:13;1.02;;;1.02;;
9330;SDS011;4704;50.470;12.072;2022-08-01T13:32:42;1.20;;;1.10;;
9330;SDS011;4704;50.470;12.072;2022-08-01T13:35:10;1.15;;;1.02;;
9330;SDS011;4704;50.470;12.072;2022-08-01T13:37:38;1.20;;;1.20;;
9330;SDS011;4704;50.470;12.072;2022-08-01T13:40:06;1.95;;;1.20;;
9330;SDS011;4704;50.470;12.072;2022-08-01T13:42:34;1.10;;;1.00;;
9330;SDS011;4704;50.470;12.072;2022-08-01T13:45:01;0.82;;;0.82;;
9330;SDS011;4704;50.470;12.072;2022-08-01T13:47:29;1.33;;;1.23;;
9330;SDS011;4704;50.470;12.072;2022-08-01T13:49:58;1.30;;;1.20;;
9330;SDS011;4704;50.470;12.072;2022-08-01T13:52:27;1.10;;;1.10;;
9330;SDS011;4704;50.470;12.072;2022-08-01T13:54:55;1.13;;;1.02;;
9330;SDS011;4704;50.470;12.072;2022-08-01T13:57:22;1.30;;;1.20;;
9330;SDS011;4704;50.470;12.072;2022-08-01T13:59:49;1.13;;;1.02;;
9330;SDS011;4704;50.470;12.072;2022-08-01T14:02:17;1.33;;;1.10;;
9330;SDS011;4704;50.470;12.072;2022-08-01T14:04:44;1.10;;;1.00;;
9330;SDS011;4704;50.470;12.072;2022-08-01T14:07:13;1.30;;;1.20;;
9330;SDS011;4704;50.470;12.072;2022-08-01T14:09:40;1.30;;;1.20;;
9330;SDS011;4704;50.470;12.072;2022-08-01T14:12:08;1.08;;;1.02;;
9330;SDS011;4704;50.470;12.072;2022-08-01T14:14:35;1.17;;;1.08;;
9330;SDS011;4704;50.470;12.072;2022-08-01T14:17:03;1.25;;;1.15;;
9330;SDS011;4704;50.470;12.072;2022-08-01T14:19:30;1.90;;;1.00;;
9330;SDS011;4704;50.470;12.072;2022-08-01T14:21:58;0.93;;;0.93;;
9330;SDS011;4704;50.470;12.072;2022-08-01T14:24:27;1.10;;;1.00;;
9330;SDS011;4704;50.470;12.072;2022-08-01T14:26:54;1.02;;;1.02;;
9330;SDS011;4704;50.470;12.072;2022-08-01T14:29:23;1.30;;;1.20;;
9330;SDS011;4704;50.470;12.072;2022-08-01T14:31:50;1.25;;;0.88;;
9330;SDS011;4704;50.470;12.072;2022-08-01T14:34:18;1.20;;;1.10;;
9330;SDS011;4704;50.470;12.072;2022-08-01T14:36:45;1.10;;;1.10;;
9330;SDS011;4704;50.470;12.072;2022-08-01T14:39:12;0.98;;;0.98;;
9330;SDS011;4704;50.470;12.072;2022-08-01T14:41:41;1.45;;;0.90;;
9330;SDS011;4704;50.470;12.072;2022-08-01T14:44:08;1.17;;;1.08;;
9330;SDS011;4704;50.470;12.072;2022-08-01T14:46:35;1.00;;;1.00;;
9330;SDS011;4704;50.470;12.072;2022-08-01T14:49:03;1.13;;;1.10;;
9330;SDS011;4704;50.470;12.072;2022-08-01T14:51:30;1.10;;;1.10;;
9330;SDS011;4704;50.470;12.072;2022-08-01T14:53:59;1.10;;;1.00;;
9330;SDS011;4704;50.470;12.072;2022-08-01T14:56:26;0.85;;;0.85;;
9330;SDS011;4704;50.470;12.072;2022-08-01T14:58:55;1.40;;;1.13;;
9330;SDS011;4704;50.470;12.072;2022-08-01T15:01:22;1.75;;;1.08;;
9330;SDS011;4704;50.470;12.072;2022-08-01T15:03:51;1.23;;;0.90;;
9330;SDS011;4704;50.470;12.072;2022-08-01T15:06:20;0.90;;;0.90;;
9330;SDS011;4704;50.470;12.072;2022-08-01T15:08:48;1.02;;;1.02;;
9330;SDS011;4704;50.470;12.072;2022-08-01T15:11:15;1.00;;;1.00;;
9330;SDS011;4704;50.470;12.072;2022-08-01T15:13:42;1.08;;;1.05;;
9330;SDS011;4704;50.470;12.072;2022-08-01T15:16:11;1.15;;;1.05;;
9330;SDS011;4704;50.470;12.072;2022-08-01T15:18:38;1.00;;;1.00;;
9330;SDS011;4704;50.470;12.072;2022-08-01T15:21:07;0.82;;;0.82;;